Lazarevskaya, Russia
Current Conditions -  °F | °C
As of 4:00 PM on Saturday 25 Oct 2014 (Local Time) from URSS Reporting Station
Broken Clouds Broken Clouds  
Wind Chill: 64°   Ceiling: 1600
Heat Index: 64°   Visibility: 6mi
Dew Point: 57°   Wind: 4mph
Humidity: 77%   Direction: 230°SW
Pressure: 30"   Gusts: NA
Location:  43.91°N, 39.33°E
Report Text: URSS 251300Z 23002MPS 9999 BKN016 BKN083 18/14 Q1016 NOSIG RMKR06/24002MPS MT OBSC QFE760 02000070 06000070
Loading
Personal Weather Stations






























Interactive Weather Map
Tropical Storm Tracking
New forecast layout! Learn more

10-Day Weather Forecast

Advertisements
Track Severe Weather on mobile